Bookmark and Share
Track history (hours):
 

Norsul Tubarao

Last reported at 2012-May-27 14:33 UTC. Time now 2014-Apr-16 22:26 UTC.
Position S 29°45' E 031°43'.
Warning: this ship's position is years out of date!

Length 175 m; draft 7.3 m.

Type: Cargo ship. MMSI: 373182000.

NotesDate/timePositionNaut miles runAvg speedWind from/ knotsBaromVisibWave heightAir tempDewpointWater temp
2012-May-27 14:33S 29°45' E 031°43'9 9.0
2012-May-27 13:33S 29°46' E 031°32'10 9.5
2012-May-27 12:33S 29°47' E 031°22'10 9.7
2012-May-27 11:33S 29°50' E 031°11'8 8.0
2012-May-27 10:35S 29°53' E 031°02'0 0.5
2012-May-27 09:33S 29°53' E 031°02'0 0.0
2012-May-27 08:33S 29°53' E 031°02'0 0.0
2012-May-27 07:33S 29°53' E 031°02'0 0.0
2012-May-27 06:30S 29°53' E 031°02'0 0.0
2012-May-27 05:33S 29°53' E 031°02'0 0.0
2012-May-27 04:36S 29°53' E 031°02'0 0.0
2012-May-27 03:33S 29°53' E 031°02'0 0.0
2012-May-27 02:33S 29°53' E 031°02'0 0.0
2012-May-27 01:31S 29°53' E 031°02'0 0.0
2012-May-27 00:31S 29°53' E 031°02'0 0.0
2012-May-26 23:31S 29°53' E 031°02'0 0.0
2012-May-26 22:28S 29°53' E 031°02'0 0.0
2012-May-26 21:33S 29°53' E 031°02'3 3.0
2012-May-26 20:33S 29°51' E 031°05'6 5.5
2012-May-26 19:33S 29°51' E 031°11'3 3.4
2012-May-26 18:33S 29°53' E 031°13'1 1.3
2012-May-26 17:33S 29°54' E 031°12'1 1.1
2012-May-26 16:33S 29°54' E 031°10'1 1.2
2012-May-26 15:33S 29°55' E 031°09'2 2.0
2012-May-26 14:33S 29°56' E 031°08'10 9.9
2012-May-26 13:33S 30°04' E 031°01'1211.7
2012-May-26 12:33S 30°15' E 030°55'  
2012-May-22 21:33S 33°48' E 016°40'1110.5
2012-May-22 20:28S 33°44' E 016°28'  

Dump ship's entire track history

sailing weather and tide predictions

Norsul Tubarao — 3FJV6 — position and weather